Time;durP1;ratioP1;P1;durP2;ratioP2;P2;SDS_P1;SDS_P2;PMS_P1;PMS_P2;Temp;Humidity;BMP_temperature;BMP_pressure;BME280_temperature;BME280_humidity;BME280_pressure;Samples;Min_cycle;Max_cycle;Signal;HPM_P1;HPM_P2
2021/04/20 00:02:30;;;;;;;3.42;2.53;;;17.60;58.50;;;;;;10496403;28;20431;-58
2021/04/20 00:07:31;;;;;;;2.67;1.98;;;17.60;58.50;;;;;;10498278;28;20380;-58
2021/04/20 00:12:32;;;;;;;2.50;2.22;;;17.60;58.50;;;;;;10505028;28;20468;-58
2021/04/20 00:17:32;;;;;;;2.50;1.77;;;17.60;58.50;;;;;;10504861;28;20028;-58
2021/04/20 00:22:33;;;;;;;2.67;2.20;;;17.60;58.40;;;;;;10504630;28;20037;-58
2021/04/20 00:27:34;;;;;;;2.47;1.63;;;17.60;58.40;;;;;;10504685;28;20029;-59
2021/04/20 00:32:36;;;;;;;3.15;1.95;;;17.60;58.70;;;;;;10486179;28;20103;-59
2021/04/20 00:37:36;;;;;;;2.63;2.22;;;17.60;58.30;;;;;;10503879;28;20036;-58
2021/04/20 00:42:57;;;;;;;3.30;2.30;;;17.50;58.20;;;;;;10485400;28;20116;-58
2021/04/20 00:47:59;;;;;;;2.60;2.17;;;17.60;58.20;;;;;;10503872;28;20032;-58
2021/04/20 00:53:00;;;;;;;4.30;2.55;;;17.60;58.20;;;;;;10503421;28;20044;-59
2021/04/20 00:58:02;;;;;;;2.47;1.90;;;17.60;58.20;;;;;;10478085;28;20477;-58
2021/04/20 01:03:03;;;;;;;3.75;2.50;;;17.60;58.20;;;;;;10502195;28;20028;-58
2021/04/20 01:08:07;;;;;;;2.50;1.80;;;17.60;58.20;;;;;;10502743;28;20524;-58
2021/04/20 01:13:10;;;;;;;2.63;2.10;;;17.60;58.20;;;;;;10502518;28;20038;-57
2021/04/20 01:18:16;;;;;;;3.05;2.08;;;17.60;58.10;;;;;;10502181;28;20056;-59
2021/04/20 01:23:45;;;;;;;2.78;2.10;;;17.60;58.10;;;;;;10502166;28;20097;-58
2021/04/20 01:28:46;;;;;;;2.25;1.90;;;17.60;58.00;;;;;;10502178;28;20059;-58
2021/04/20 01:33:48;;;;;;;2.75;2.00;;;17.60;58.00;;;;;;10479680;28;20032;-57
2021/04/20 01:38:51;;;;;;;2.83;2.40;;;17.60;58.00;;;;;;10501681;28;20033;-59
2021/04/20 01:43:54;;;;;;;2.55;2.20;;;17.60;57.90;;;;;;10501222;28;20048;-58
2021/04/20 01:48:56;;;;;;;2.80;2.45;;;17.60;57.90;;;;;;10501134;28;20094;-58
2021/04/20 01:53:57;;;;;;;3.50;2.55;;;17.60;57.90;;;;;;10501133;28;20029;-58
2021/04/20 01:58:59;;;;;;;3.10;2.03;;;17.60;57.80;;;;;;10500433;28;20469;-58
2021/04/20 02:04:00;;;;;;;2.63;1.92;;;17.60;57.80;;;;;;10483319;28;20439;-56
2021/04/20 02:09:02;;;;;;;2.33;1.77;;;17.60;57.80;;;;;;10473154;28;20029;-57
2021/04/20 02:14:03;;;;;;;3.30;1.92;;;17.60;57.70;;;;;;10482685;28;20123;-56
2021/04/20 02:19:07;;;;;;;2.45;2.25;;;17.60;57.70;;;;;;10499914;28;20112;-59
2021/04/20 02:24:13;;;;;;;3.20;2.30;;;17.60;57.70;;;;;;10499747;28;20381;-58
2021/04/20 02:29:14;;;;;;;4.35;2.20;;;17.60;57.70;;;;;;10499503;28;20451;-59
2021/04/20 02:34:15;;;;;;;2.42;2.00;;;17.60;57.60;;;;;;10481264;28;20025;-58
2021/04/20 02:39:16;;;;;;;2.25;1.55;;;17.60;57.50;;;;;;10480622;28;20033;-58
2021/04/20 02:44:17;;;;;;;2.40;1.70;;;17.60;57.50;;;;;;10481081;28;20378;-59
2021/04/20 02:49:18;;;;;;;2.03;1.77;;;17.60;57.50;;;;;;10498647;28;20033;-58
2021/04/20 02:54:19;;;;;;;3.45;1.98;;;17.60;58.00;;;;;;10499058;28;20028;-59
2021/04/20 02:59:21;;;;;;;2.85;1.75;;;17.70;57.50;;;;;;10469008;28;20040;-57
2021/04/20 03:04:21;;;;;;;3.50;2.25;;;17.70;57.40;;;;;;10479961;28;20016;-58
2021/04/20 03:09:22;;;;;;;2.83;1.65;;;17.60;57.30;;;;;;10497511;28;20044;-58
2021/04/20 03:14:24;;;;;;;2.90;2.05;;;17.60;57.30;;;;;;10479544;28;20170;-58
2021/04/20 03:19:25;;;;;;;3.50;1.95;;;17.60;57.40;;;;;;10473072;28;20112;-58
2021/04/20 03:24:32;;;;;;;2.60;1.77;;;17.60;57.30;;;;;;10479450;28;20040;-58
2021/04/20 03:29:33;;;;;;;2.88;1.98;;;17.60;57.30;;;;;;10497304;28;20445;-58
2021/04/20 03:34:48;;;;;;;2.00;1.80;;;17.60;57.30;;;;;;10478991;28;20119;-59
2021/04/20 03:39:53;;;;;;;2.63;1.77;;;17.60;57.20;;;;;;10476672;28;20058;-58
2021/04/20 03:45:00;;;;;;;2.53;1.90;;;17.60;57.30;;;;;;10478285;28;20059;-57
2021/04/20 03:50:04;;;;;;;2.40;1.90;;;17.60;57.30;;;;;;10478975;28;20174;-58
2021/04/20 03:55:08;;;;;;;2.55;1.90;;;17.50;57.20;;;;;;10478831;28;20038;-59
2021/04/20 04:00:12;;;;;;;2.67;1.98;;;17.60;57.20;;;;;;10479059;28;20041;-58
2021/04/20 04:05:21;;;;;;;2.22;1.60;;;17.60;57.30;;;;;;10471327;28;20397;-58
2021/04/20 04:10:23;;;;;;;3.17;2.10;;;17.60;57.30;;;;;;10478831;28;20100;-58
2021/04/20 04:15:24;;;;;;;2.63;1.80;;;17.60;57.10;;;;;;10495910;28;20029;-58
2021/04/20 04:20:25;;;;;;;2.72;2.00;;;17.60;57.00;;;;;;10477250;28;20029;-58
2021/04/20 04:25:33;;;;;;;2.17;1.63;;;17.60;57.00;;;;;;10491689;28;20074;-58
2021/04/20 04:30:35;;;;;;;2.33;1.70;;;17.60;57.00;;;;;;10494585;28;20493;-59
2021/04/20 04:35:36;;;;;;;2.47;1.90;;;17.60;57.00;;;;;;10494644;28;20588;-57
2021/04/20 04:40:37;;;;;;;2.95;2.05;;;17.60;56.90;;;;;;10475812;28;20028;-58
2021/04/20 04:45:38;;;;;;;2.67;1.98;;;17.60;56.90;;;;;;10473645;28;20110;-59
2021/04/20 04:50:41;;;;;;;3.30;2.33;;;17.60;56.90;;;;;;10472829;28;20074;-58
2021/04/20 04:55:42;;;;;;;2.45;1.90;;;17.60;56.90;;;;;;10500245;28;20064;-58
2021/04/20 05:00:43;;;;;;;2.50;2.00;;;17.60;56.90;;;;;;10502851;28;20025;-59
2021/04/20 05:05:47;;;;;;;1.98;1.50;;;17.60;56.90;;;;;;10501544;28;20029;-59
2021/04/20 05:10:49;;;;;;;6.60;2.55;;;17.60;56.80;;;;;;10482210;28;20078;-57
2021/04/20 05:15:49;;;;;;;4.97;2.10;;;17.60;57.80;;;;;;10476180;28;20041;-58
2021/04/20 05:20:50;;;;;;;5.10;2.10;;;17.50;58.30;;;;;;10483021;28;20468;-58
2021/04/20 05:25:52;;;;;;;4.55;1.83;;;17.60;58.50;;;;;;10484716;28;20415;-58
2021/04/20 05:30:54;;;;;;;4.15;2.42;;;17.60;59.30;;;;;;10502039;28;20039;-58
2021/04/20 05:36:07;;;;;;;5.15;2.40;;;17.60;59.30;;;;;;10501235;28;20101;-59
2021/04/20 05:41:08;;;;;;;16.08;3.20;;;17.60;59.50;;;;;;10499587;28;20429;-59
2021/04/20 05:46:09;;;;;;;11.30;2.95;;;17.60;58.60;;;;;;10501469;28;20107;-58
2021/04/20 05:51:11;;;;;;;10.60;3.72;;;17.60;58.60;;;;;;10500789;28;20037;-59
2021/04/20 05:56:17;;;;;;;8.00;3.22;;;17.50;58.30;;;;;;10482196;28;20491;-56
2021/04/20 06:01:19;;;;;;;9.50;3.75;;;17.50;58.00;;;;;;10500936;28;20028;-58
2021/04/20 06:06:22;;;;;;;8.77;3.70;;;17.50;57.60;;;;;;10473533;28;20274;-58
2021/04/20 06:11:23;;;;;;;10.82;3.58;;;17.50;57.50;;;;;;10494375;28;20086;-57
2021/04/20 06:16:24;;;;;;;6.78;3.35;;;17.60;57.60;;;;;;10476723;28;20086;-58
2021/04/20 06:21:26;;;;;;;13.50;4.60;;;17.50;57.60;;;;;;10497088;28;20090;-55
2021/04/20 06:26:27;;;;;;;8.00;3.22;;;17.50;57.20;;;;;;10472698;28;20131;-59
2021/04/20 06:31:32;;;;;;;6.82;3.50;;;17.50;57.10;;;;;;10497703;28;20025;-59
2021/04/20 06:36:36;;;;;;;10.05;3.70;;;17.50;57.10;;;;;;10496784;28;20384;-58
2021/04/20 06:41:38;;;;;;;7.32;3.90;;;17.50;57.00;;;;;;10496554;28;20123;-58
2021/04/20 06:46:56;;;;;;;6.68;3.60;;;17.50;57.60;;;;;;10479434;28;20032;-58
2021/04/20 06:52:06;;;;;;;6.85;3.28;;;17.60;57.00;;;;;;10474599;28;20052;-58
2021/04/20 06:57:17;;;;;;;7.40;3.95;;;17.50;57.00;;;;;;10498498;28;20058;-59
2021/04/20 07:02:42;;;;;;;8.00;3.58;;;17.50;57.00;;;;;;10476336;28;20036;-58
2021/04/20 07:08:22;;;;;;;6.97;3.75;;;17.50;57.00;;;;;;10497619;28;20027;-59
2021/04/20 07:13:27;;;;;;;7.93;3.75;;;17.50;57.00;;;;;;10493347;28;20415;-58
2021/04/20 07:19:05;;;;;;;9.30;3.70;;;17.50;56.90;;;;;;10479750;28;20413;-59
2021/04/20 07:24:20;;;;;;;5.55;3.03;;;17.50;56.90;;;;;;10503174;28;20024;-57
2021/04/20 07:29:41;;;;;;;5.30;3.20;;;17.50;56.90;;;;;;10483087;28;20032;-58
2021/04/20 07:35:00;;;;;;;7.35;3.08;;;17.50;56.90;;;;;;10480156;28;20055;-58
2021/04/20 07:40:27;;;;;;;6.00;3.40;;;17.50;56.90;;;;;;10481169;28;20108;-59
2021/04/20 07:46:01;;;;;;;7.82;3.85;;;17.50;56.90;;;;;;10496020;28;20028;-58
2021/04/20 07:51:31;;;;;;;6.55;3.55;;;17.50;56.90;;;;;;10475575;28;20021;-58
2021/04/20 07:56:55;;;;;;;3.83;3.17;;;17.50;57.10;;;;;;10476356;28;20108;-58
2021/04/20 08:02:04;;;;;;;5.68;3.05;;;17.40;57.50;;;;;;10495893;28;20082;-58
2021/04/20 08:07:14;;;;;;;4.13;2.73;;;17.30;57.80;;;;;;10478164;28;20052;-58
2021/04/20 08:12:28;;;;;;;5.75;3.15;;;17.30;58.00;;;;;;10495417;28;20032;-58
2021/04/20 08:18:07;;;;;;;3.65;2.60;;;17.30;58.00;;;;;;10476758;28;20477;-58
2021/04/20 08:23:10;;;;;;;7.60;2.95;;;17.30;58.20;;;;;;10468651;28;20043;-57
2021/04/20 08:28:38;;;;;;;5.55;3.25;;;17.30;58.00;;;;;;10496261;28;20385;-58
2021/04/20 08:33:44;;;;;;;4.63;2.88;;;17.30;58.00;;;;;;10486542;28;20025;-59
2021/04/20 08:39:29;;;;;;;7.25;2.90;;;17.30;58.10;;;;;;10504025;28;20162;-59
2021/04/20 08:45:23;;;;;;;7.38;3.13;;;17.30;58.30;;;;;;10487089;28;20040;-59
2021/04/20 08:50:26;;;;;;;5.90;3.17;;;17.30;58.30;;;;;;10488585;28;20124;-58
2021/04/20 08:56:01;;;;;;;4.00;2.90;;;17.30;58.30;;;;;;10502781;28;20041;-59
2021/04/20 09:01:17;;;;;;;3.63;2.97;;;17.30;58.40;;;;;;10500739;28;20035;-59
2021/04/20 09:06:51;;;;;;;5.65;3.20;;;17.30;59.00;;;;;;10503077;28;20450;-59
2021/04/20 09:12:00;;;;;;;7.68;3.90;;;17.30;58.30;;;;;;10479276;28;20044;-58
2021/04/20 09:17:10;;;;;;;4.40;2.80;;;17.30;58.30;;;;;;10502641;28;20027;-58
2021/04/20 09:22:49;;;;;;;5.55;3.03;;;17.30;58.30;;;;;;10480660;28;20031;-58
2021/04/20 09:28:07;;;;;;;4.57;2.78;;;17.30;58.30;;;;;;10502078;28;20041;-59
2021/04/20 09:33:14;;;;;;;5.30;2.90;;;17.30;58.30;;;;;;10485231;28;20040;-58
2021/04/20 09:38:17;;;;;;;3.53;2.83;;;17.30;58.30;;;;;;10484269;28;20044;-59
2021/04/20 09:43:22;;;;;;;3.92;3.05;;;17.30;58.30;;;;;;10482455;28;20048;-58
2021/04/20 09:49:08;;;;;;;3.13;2.50;;;17.30;58.30;;;;;;10483755;28;20051;-58
2021/04/20 09:54:25;;;;;;;3.75;2.63;;;17.30;58.30;;;;;;10485120;28;20040;-59
2021/04/20 09:59:35;;;;;;;4.82;3.05;;;17.30;58.30;;;;;;10483251;28;20021;-58
2021/04/20 10:04:42;;;;;;;4.03;2.97;;;17.40;58.30;;;;;;10484038;28;20027;-58
2021/04/20 10:10:05;;;;;;;3.67;2.90;;;17.40;58.30;;;;;;10500755;28;20032;-56
2021/04/20 10:15:26;;;;;;;3.85;2.60;;;17.40;58.20;;;;;;10482855;28;20036;-58
2021/04/20 10:20:49;;;;;;;4.72;3.05;;;17.40;58.30;;;;;;10499861;28;20107;-59
2021/04/20 10:26:09;;;;;;;4.15;2.92;;;17.50;58.30;;;;;;10500191;28;20028;-59
2021/04/20 10:31:22;;;;;;;3.60;2.60;;;17.50;58.30;;;;;;10483420;28;20123;-59
2021/04/20 10:36:26;;;;;;;5.15;3.22;;;17.50;58.30;;;;;;10481948;28;20477;-58
2021/04/20 10:41:35;;;;;;;3.92;2.85;;;17.50;58.20;;;;;;10473698;28;20041;-58
2021/04/20 10:46:36;;;;;;;4.60;3.17;;;17.50;58.30;;;;;;10478619;28;20067;-58
2021/04/20 10:51:40;;;;;;;5.13;2.72;;;17.60;58.30;;;;;;10497819;28;20027;-58
2021/04/20 10:56:55;;;;;;;3.65;2.40;;;17.60;58.20;;;;;;10477565;28;20052;-57
2021/04/20 11:02:01;;;;;;;3.63;2.85;;;17.60;58.30;;;;;;10497171;28;20017;-59
2021/04/20 11:07:23;;;;;;;3.80;2.75;;;17.60;58.20;;;;;;10472123;28;20032;-58
2021/04/20 11:12:26;;;;;;;4.30;2.80;;;17.70;58.20;;;;;;10497416;28;20032;-58
2021/04/20 11:17:41;;;;;;;3.40;3.00;;;17.70;58.20;;;;;;10496535;28;20113;-57
2021/04/20 11:23:11;;;;;;;4.43;3.22;;;17.70;58.80;;;;;;10496846;28;20074;-58
2021/04/20 11:28:36;;;;;;;3.90;2.78;;;17.70;58.20;;;;;;10472925;28;20491;-58
2021/04/20 11:33:46;;;;;;;3.97;3.15;;;17.70;58.20;;;;;;10495924;28;20039;-57
2021/04/20 11:38:50;;;;;;;;;;;17.70;58.30;;;;;;10497256;28;20116;-56
2021/04/20 11:43:59;;;;;;;3.95;2.63;;;17.70;58.30;;;;;;10424833;28;20357;-59
2021/04/20 11:49:17;;;;;;;4.10;2.90;;;17.80;58.50;;;;;;10428740;28;20052;-58
2021/04/20 11:54:28;;;;;;;8.65;3.88;;;17.70;58.60;;;;;;10411991;28;20104;-59
2021/04/20 11:59:31;;;;;;;5.95;3.70;;;17.70;58.80;;;;;;10412229;28;20049;-60
2021/04/20 12:04:39;;;;;;;4.47;3.22;;;17.80;59.10;;;;;;10409376;28;20041;-58
2021/04/20 12:09:41;;;;;;;5.63;2.75;;;17.80;59.10;;;;;;10411839;28;20116;-59
2021/04/20 12:14:43;;;;;;;6.18;3.83;;;17.80;59.00;;;;;;10401775;28;20026;-58
2021/04/20 12:19:46;;;;;;;7.82;3.30;;;17.80;58.90;;;;;;10413532;28;20034;-58
2021/04/20 12:24:47;;;;;;;9.38;4.03;;;17.80;59.10;;;;;;10413309;28;20046;-58
2021/04/20 12:29:49;;;;;;;14.63;5.60;;;17.80;58.90;;;;;;10411853;28;20080;-59
2021/04/20 12:34:58;;;;;;;12.75;4.70;;;17.90;58.90;;;;;;10409518;28;20116;-57
2021/04/20 12:40:07;;;;;;;12.30;5.28;;;17.90;58.90;;;;;;10413710;28;20060;-58
2021/04/20 12:45:15;;;;;;;12.73;5.85;;;18.00;59.00;;;;;;10487362;28;20037;-57
2021/04/20 12:50:21;;;;;;;12.05;5.13;;;17.90;58.90;;;;;;10495475;28;20481;-56
2021/04/20 12:55:25;;;;;;;9.00;4.55;;;18.00;58.60;;;;;;10486988;28;20029;-57
2021/04/20 13:00:31;;;;;;;13.20;5.85;;;18.10;58.60;;;;;;10495450;28;20507;-57
2021/04/20 13:05:38;;;;;;;12.10;5.80;;;18.00;58.50;;;;;;10495920;28;20383;-57
2021/04/20 13:10:43;;;;;;;6.93;4.53;;;18.10;58.60;;;;;;10476406;28;20024;-56
2021/04/20 13:15:44;;;;;;;9.95;4.95;;;18.10;58.40;;;;;;10467728;28;20055;-56
2021/04/20 13:20:48;;;;;;;8.07;5.18;;;18.10;58.40;;;;;;10501361;28;20028;-57
2021/04/20 13:26:09;;;;;;;8.40;4.90;;;18.10;58.20;;;;;;10484109;28;20030;-49
2021/04/20 13:31:27;;;;;;;12.60;5.50;;;18.10;58.10;;;;;;10468842;28;20040;-47
2021/04/20 13:36:30;;;;;;;11.25;5.25;;;18.10;58.10;;;;;;10500802;28;20116;-47
2021/04/20 13:41:34;;;;;;;11.88;5.93;;;18.00;58.10;;;;;;10498496;28;20076;-46
2021/04/20 13:46:44;;;;;;;11.73;4.95;;;18.00;58.20;;;;;;10498816;28;20047;-48
2021/04/20 13:52:00;;;;;;;10.10;5.15;;;18.00;58.20;;;;;;10472852;28;20107;-47
2021/04/20 13:57:10;;;;;;;7.70;4.57;;;18.00;58.30;;;;;;10481792;28;20036;-51
2021/04/20 14:02:13;;;;;;;7.15;4.80;;;18.00;58.40;;;;;;10500657;28;20051;-50
2021/04/20 14:07:27;;;;;;;6.55;4.20;;;18.00;58.40;;;;;;10501064;28;20089;-46
2021/04/20 14:12:45;;;;;;;9.23;4.88;;;18.10;58.50;;;;;;10481908;28;20028;-47
2021/04/20 14:18:02;;;;;;;10.82;5.15;;;18.00;58.40;;;;;;10461291;28;20040;-48
2021/04/20 14:23:08;;;;;;;8.02;4.35;;;18.00;58.50;;;;;;10498825;28;20025;-50
2021/04/20 14:28:20;;;;;;;7.68;4.95;;;18.10;58.50;;;;;;10495855;28;20031;-57
2021/04/20 14:33:30;;;;;;;10.15;6.03;;;18.10;58.50;;;;;;10477726;28;20063;-55
2021/04/20 14:38:38;;;;;;;6.55;4.50;;;18.10;58.50;;;;;;10497146;28;20036;-56
2021/04/20 14:43:50;;;;;;;8.07;5.65;;;18.10;59.20;;;;;;10472970;28;20173;-55
2021/04/20 14:48:57;;;;;;;6.47;4.90;;;18.20;58.70;;;;;;10498841;28;20043;-56
2021/04/20 14:53:59;;;;;;;6.88;5.38;;;18.20;58.70;;;;;;10480848;28;20116;-54
2021/04/20 14:59:02;;;;;;;9.43;5.72;;;18.20;57.80;;;;;;10497563;28;20032;-55
2021/04/20 15:04:10;;;;;;;11.10;6.90;;;18.20;57.10;;;;;;10497145;28;20024;-49
2021/04/20 15:09:15;;;;;;;11.45;6.35;;;18.20;56.40;;;;;;10496725;28;20029;-53
2021/04/20 15:14:42;;;;;;;8.07;6.38;;;18.20;56.00;;;;;;10482186;28;20035;-58
2021/04/20 15:19:51;;;;;;;9.18;6.43;;;18.10;56.20;;;;;;10460364;28;20048;-56
2021/04/20 15:25:02;;;;;;;10.70;6.97;;;18.10;56.50;;;;;;10479498;28;20028;-56
2021/04/20 15:30:19;;;;;;;11.98;6.55;;;18.10;56.80;;;;;;10495016;28;20075;-51
2021/04/20 15:35:36;;;;;;;9.57;7.38;;;18.10;57.00;;;;;;10492975;28;20396;-56
2021/04/20 15:40:43;;;;;;;7.57;5.47;;;18.10;57.30;;;;;;10477233;28;20119;-57
2021/04/20 15:45:46;;;;;;;9.45;6.72;;;18.10;57.40;;;;;;10477814;28;20347;-57
2021/04/20 15:50:56;;;;;;;7.32;5.55;;;18.00;57.50;;;;;;10471493;28;20039;-57
2021/04/20 15:56:09;;;;;;;7.40;6.03;;;18.00;57.60;;;;;;10495576;28;20385;-57
2021/04/20 16:01:10;;;;;;;7.18;5.93;;;18.00;57.70;;;;;;10479244;28;20361;-57
2021/04/20 16:06:13;;;;;;;9.05;6.70;;;18.00;57.80;;;;;;10467179;28;20082;-57
2021/04/20 16:11:15;;;;;;;8.48;7.18;;;18.00;58.10;;;;;;10466196;28;20031;-57
2021/04/20 16:16:24;;;;;;;9.82;7.10;;;18.00;59.40;;;;;;10478288;28;20034;-55
2021/04/20 16:21:31;;;;;;;;;;;18.10;59.50;;;;;;10479095;28;20033;-54
2021/04/20 16:26:32;;;;;;;12.20;8.10;;;18.20;59.80;;;;;;10479159;28;19959;-56
2021/04/20 16:31:38;;;;;;;12.52;8.60;;;18.30;61.10;;;;;;10496132;28;20028;-53
2021/04/20 16:37:33;;;;;;;17.23;8.43;;;18.30;61.50;;;;;;10461700;28;20119;-55
2021/04/20 16:43:17;;;;;;;15.70;8.55;;;18.30;61.10;;;;;;10472780;28;20044;-53
2021/04/20 16:48:54;;;;;;;14.43;9.45;;;18.30;60.40;;;;;;10491844;28;20024;-51
2021/04/20 16:54:40;;;;;;;13.73;8.40;;;18.30;60.10;;;;;;10502712;28;20112;-55
2021/04/20 17:00:08;;;;;;;11.95;9.40;;;18.30;59.40;;;;;;10480906;28;20077;-55
2021/04/20 17:05:36;;;;;;;12.95;9.13;;;18.30;59.00;;;;;;10484731;28;20029;-55
2021/04/20 17:11:06;;;;;;;9.70;8.00;;;18.20;58.80;;;;;;10484008;28;20063;-49
2021/04/20 17:16:46;;;;;;;9.18;7.43;;;18.20;59.00;;;;;;10466333;28;20051;-54
2021/04/20 17:22:16;;;;;;;12.40;8.30;;;18.20;59.00;;;;;;10502461;28;20029;-55
2021/04/20 17:28:00;;;;;;;12.32;8.68;;;18.10;59.00;;;;;;10465879;28;20070;-52
2021/04/20 17:33:37;;;;;;;13.82;8.95;;;18.20;59.40;;;;;;10495360;28;20029;-55
2021/04/20 17:39:17;;;;;;;11.10;8.00;;;18.20;60.00;;;;;;10500904;28;20434;-53
2021/04/20 17:44:49;;;;;;;10.00;7.72;;;18.20;60.00;;;;;;10483273;28;20055;-54
2021/04/20 17:49:59;;;;;;;12.18;7.82;;;18.20;60.10;;;;;;10501387;28;20503;-52
2021/04/20 17:55:20;;;;;;;11.85;7.68;;;18.20;60.10;;;;;;10500285;28;20040;-53
2021/04/20 18:00:32;;;;;;;12.30;7.88;;;18.20;60.10;;;;;;10481654;28;20093;-53
2021/04/20 18:06:10;;;;;;;14.90;8.90;;;18.20;60.20;;;;;;10499970;28;20039;-53
2021/04/20 18:11:27;;;;;;;13.02;8.13;;;18.20;60.90;;;;;;10484659;28;20074;-55
2021/04/20 18:16:50;;;;;;;10.85;7.90;;;18.20;61.00;;;;;;10467028;28;20067;-49
2021/04/20 18:22:46;;;;;;;13.93;8.15;;;18.20;61.70;;;;;;10498768;28;20482;-49
2021/04/20 18:28:14;;;;;;;14.90;7.90;;;18.20;61.40;;;;;;10487975;28;20499;-48
2021/04/20 18:33:42;;;;;;;13.38;6.80;;;18.20;61.20;;;;;;10481202;28;20035;-52
2021/04/20 18:39:04;;;;;;;11.50;7.05;;;18.20;61.10;;;;;;10492730;28;20373;-50
2021/04/20 18:44:32;;;;;;;12.35;8.38;;;18.20;61.10;;;;;;10474150;28;20083;-53
2021/04/20 18:50:00;;;;;;;12.50;7.15;;;18.20;61.10;;;;;;10469783;28;20528;-51
2021/04/20 18:55:24;;;;;;;10.95;8.02;;;18.20;60.90;;;;;;10485224;28;20062;-55
2021/04/20 19:00:28;;;;;;;11.30;6.93;;;18.20;61.10;;;;;;10490628;28;20046;-53
2021/04/20 19:05:29;;;;;;;15.70;7.28;;;18.20;60.70;;;;;;10491705;28;20032;-56
2021/04/20 19:10:33;;;;;;;9.00;6.25;;;18.20;60.80;;;;;;10491129;28;20396;-57
2021/04/20 19:16:20;;;;;;;8.13;6.85;;;18.20;60.50;;;;;;10470778;28;20032;-57
2021/04/20 19:21:50;;;;;;;10.20;6.97;;;18.10;60.50;;;;;;10494624;28;20039;-56
2021/04/20 19:27:08;;;;;;;10.90;6.67;;;18.10;60.40;;;;;;10494553;28;20032;-57
2021/04/20 19:32:31;;;;;;;6.93;6.20;;;18.00;60.40;;;;;;10493084;28;20343;-56
2021/04/20 19:37:41;;;;;;;7.65;5.80;;;18.00;60.10;;;;;;10496603;28;20584;-57
2021/04/20 19:43:07;;;;;;;9.48;6.82;;;18.00;60.20;;;;;;10478163;28;20036;-57
2021/04/20 19:48:16;;;;;;;10.65;7.05;;;18.00;60.20;;;;;;10478660;28;20556;-55
2021/04/20 19:53:27;;;;;;;9.47;6.47;;;18.00;60.10;;;;;;10468355;28;20029;-57
2021/04/20 19:58:30;;;;;;;7.75;6.50;;;17.90;60.00;;;;;;10479372;28;20115;-57
2021/04/20 20:03:39;;;;;;;9.25;6.45;;;17.90;59.90;;;;;;10497281;28;20466;-57
2021/04/20 20:08:50;;;;;;;9.73;5.93;;;17.90;59.80;;;;;;10496479;28;20051;-57
2021/04/20 20:13:53;;;;;;;8.23;6.22;;;17.90;59.80;;;;;;10468074;28;20116;-57
2021/04/20 20:19:08;;;;;;;7.93;7.07;;;17.90;60.30;;;;;;10496302;28;20036;-57
2021/04/20 20:24:12;;;;;;;7.57;6.35;;;17.90;59.70;;;;;;10480507;28;20016;-57
2021/04/20 20:29:17;;;;;;;8.23;6.30;;;17.90;59.60;;;;;;10504600;28;20123;-57
2021/04/20 20:34:30;;;;;;;8.38;5.63;;;17.90;59.60;;;;;;10487315;28;20431;-57
2021/04/20 20:39:40;;;;;;;6.88;6.03;;;17.90;59.50;;;;;;10504248;28;20032;-57
2021/04/20 20:44:43;;;;;;;5.78;5.18;;;17.90;59.50;;;;;;10487504;28;20043;-57
2021/04/20 20:49:48;;;;;;;6.40;5.50;;;17.90;59.40;;;;;;10503938;28;20044;-57
2021/04/20 20:54:52;;;;;;;8.98;6.40;;;17.90;59.50;;;;;;10503924;28;20033;-57
2021/04/20 21:00:00;;;;;;;6.47;5.28;;;17.90;59.60;;;;;;10483198;28;20036;-57
2021/04/20 21:05:02;;;;;;;6.88;5.55;;;17.90;59.40;;;;;;10503661;28;20044;-57
2021/04/20 21:10:14;;;;;;;6.05;4.50;;;17.90;59.30;;;;;;10482895;28;20533;-57
2021/04/20 21:15:38;;;;;;;5.68;4.85;;;17.90;59.20;;;;;;10486001;28;20029;-57
2021/04/20 21:21:05;;;;;;;6.35;5.43;;;17.90;59.20;;;;;;10483707;28;20025;-56
2021/04/20 21:26:29;;;;;;;6.82;5.10;;;17.90;59.10;;;;;;10484741;28;20109;-57
2021/04/20 21:31:34;;;;;;;6.70;5.50;;;17.90;59.10;;;;;;10479498;28;20029;-57
2021/04/20 21:36:36;;;;;;;7.75;5.38;;;17.90;59.10;;;;;;10484495;28;20036;-57
2021/04/20 21:41:41;;;;;;;5.68;4.60;;;17.90;59.00;;;;;;10481528;28;20040;-57
2021/04/20 21:46:51;;;;;;;7.63;5.55;;;17.90;59.00;;;;;;10484441;28;20033;-57
2021/04/20 21:51:57;;;;;;;6.82;5.60;;;17.90;58.90;;;;;;10484498;28;20040;-56
2021/04/20 21:57:04;;;;;;;7.25;5.13;;;17.90;58.90;;;;;;10501840;28;20115;-57
2021/04/20 22:02:07;;;;;;;10.65;5.20;;;17.90;58.80;;;;;;10483742;28;20052;-57
2021/04/20 22:07:13;;;;;;;5.78;5.13;;;17.80;58.80;;;;;;10483792;28;20043;-57
2021/04/20 22:12:19;;;;;;;6.10;4.70;;;17.80;58.80;;;;;;10500860;28;20058;-57
2021/04/20 22:17:21;;;;;;;5.88;4.63;;;17.90;58.80;;;;;;10483211;28;20036;-57
2021/04/20 22:22:42;;;;;;;4.68;4.00;;;17.90;58.80;;;;;;10500148;28;20479;-57
2021/04/20 22:28:09;;;;;;;7.32;5.43;;;17.80;58.70;;;;;;10482538;28;20028;-57
2021/04/20 22:33:17;;;;;;;6.13;4.43;;;17.80;58.80;;;;;;10492203;28;20033;-57
2021/04/20 22:38:28;;;;;;;6.22;4.68;;;17.80;58.90;;;;;;10495346;28;20111;-57
2021/04/20 22:43:29;;;;;;;5.53;4.43;;;17.80;58.80;;;;;;10481603;28;20527;-56
2021/04/20 22:48:32;;;;;;;5.25;4.75;;;17.80;58.80;;;;;;10480880;28;20044;-57
2021/04/20 22:53:36;;;;;;;5.97;4.57;;;17.80;58.80;;;;;;10481493;28;20107;-57
2021/04/20 22:58:43;;;;;;;5.72;4.53;;;17.80;58.80;;;;;;10481459;28;20055;-57
2021/04/20 23:03:54;;;;;;;6.05;5.05;;;17.80;58.80;;;;;;10498849;28;20465;-57
2021/04/20 23:09:00;;;;;;;4.82;4.30;;;17.80;58.70;;;;;;10498660;28;20432;-57
2021/04/20 23:14:07;;;;;;;7.38;4.60;;;17.80;58.70;;;;;;10480938;28;20028;-56
2021/04/20 23:19:15;;;;;;;5.00;4.45;;;17.80;58.80;;;;;;10481399;28;20075;-57
2021/04/20 23:24:42;;;;;;;7.10;4.88;;;17.80;58.70;;;;;;10480592;28;20480;-57
2021/04/20 23:30:12;;;;;;;5.55;4.95;;;17.80;58.60;;;;;;10480526;28;20028;-57
2021/04/20 23:35:14;;;;;;;5.72;4.70;;;17.80;58.50;;;;;;10497580;28;20025;-56
2021/04/20 23:40:19;;;;;;;5.03;4.30;;;17.80;58.50;;;;;;10479420;28;20036;-57
2021/04/20 23:45:22;;;;;;;7.80;4.32;;;17.70;58.50;;;;;;10479864;28;20047;-57
2021/04/20 23:50:24;;;;;;;5.47;4.38;;;17.80;58.60;;;;;;10479439;28;20043;-57
2021/04/20 23:55:27;;;;;;;5.22;4.72;;;17.70;58.50;;;;;;10466797;28;20094;-55
